sensor_id;sensor_type;location;lat;lon;timestamp;temperature;humidity
39925;DHT22;25592;49.986;11.618;2022-07-29T00:01:48;22.70;54.70
39925;DHT22;25592;49.986;11.618;2022-07-29T00:04:36;22.70;55.00
39925;DHT22;25592;49.986;11.618;2022-07-29T00:07:22;22.70;54.90
39925;DHT22;25592;49.986;11.618;2022-07-29T00:10:08;22.60;55.20
39925;DHT22;25592;49.986;11.618;2022-07-29T00:12:53;22.60;55.20
39925;DHT22;25592;49.986;11.618;2022-07-29T00:15:39;22.60;55.70
39925;DHT22;25592;49.986;11.618;2022-07-29T00:18:24;22.70;55.90
39925;DHT22;25592;49.986;11.618;2022-07-29T00:21:10;22.60;54.70
39925;DHT22;25592;49.986;11.618;2022-07-29T00:23:55;22.60;54.70
39925;DHT22;25592;49.986;11.618;2022-07-29T00:26:41;22.60;55.00
39925;DHT22;25592;49.986;11.618;2022-07-29T00:29:26;22.50;54.80
39925;DHT22;25592;49.986;11.618;2022-07-29T00:32:19;22.50;55.00
39925;DHT22;25592;49.986;11.618;2022-07-29T00:35:05;22.50;55.40
39925;DHT22;25592;49.986;11.618;2022-07-29T00:38:14;22.50;55.40
39925;DHT22;25592;49.986;11.618;2022-07-29T00:41:00;22.50;55.40
39925;DHT22;25592;49.986;11.618;2022-07-29T00:43:45;22.50;55.90
39925;DHT22;25592;49.986;11.618;2022-07-29T00:46:30;22.50;55.80
39925;DHT22;25592;49.986;11.618;2022-07-29T00:49:16;22.40;55.70
39925;DHT22;25592;49.986;11.618;2022-07-29T00:52:07;22.40;55.50
39925;DHT22;25592;49.986;11.618;2022-07-29T00:54:53;22.30;55.60
39925;DHT22;25592;49.986;11.618;2022-07-29T00:57:39;22.20;55.80
39925;DHT22;25592;49.986;11.618;2022-07-29T01:00:26;22.20;56.20
39925;DHT22;25592;49.986;11.618;2022-07-29T01:03:12;22.20;56.80
39925;DHT22;25592;49.986;11.618;2022-07-29T01:05:57;22.20;56.40
39925;DHT22;25592;49.986;11.618;2022-07-29T01:08:45;22.20;56.90
39925;DHT22;25592;49.986;11.618;2022-07-29T01:11:30;22.20;57.40
39925;DHT22;25592;49.986;11.618;2022-07-29T01:14:16;22.20;57.40
39925;DHT22;25592;49.986;11.618;2022-07-29T01:17:12;22.10;57.50
39925;DHT22;25592;49.986;11.618;2022-07-29T01:20:10;22.10;57.30
39925;DHT22;25592;49.986;11.618;2022-07-29T01:32:07;22.10;58.10
39925;DHT22;25592;49.986;11.618;2022-07-29T01:38:05;22.00;57.70
39925;DHT22;25592;49.986;11.618;2022-07-29T01:40:59;22.00;58.20
39925;DHT22;25592;49.986;11.618;2022-07-29T01:44:01;22.10;58.00
39925;DHT22;25592;49.986;11.618;2022-07-29T01:46:52;22.10;57.40
39925;DHT22;25592;49.986;11.618;2022-07-29T01:49:42;22.10;58.30
39925;DHT22;25592;49.986;11.618;2022-07-29T01:52:35;22.10;58.90
39925;DHT22;25592;49.986;11.618;2022-07-29T01:55:27;22.00;57.50
39925;DHT22;25592;49.986;11.618;2022-07-29T01:58:13;22.10;58.10
39925;DHT22;25592;49.986;11.618;2022-07-29T02:00:59;22.00;58.10
39925;DHT22;25592;49.986;11.618;2022-07-29T02:03:46;21.80;57.80
39925;DHT22;25592;49.986;11.618;2022-07-29T02:06:33;21.80;56.90
39925;DHT22;25592;49.986;11.618;2022-07-29T02:09:21;21.90;57.20
39925;DHT22;25592;49.986;11.618;2022-07-29T02:12:07;21.90;57.20
39925;DHT22;25592;49.986;11.618;2022-07-29T02:14:54;22.00;57.60
39925;DHT22;25592;49.986;11.618;2022-07-29T02:17:45;21.70;57.80
39925;DHT22;25592;49.986;11.618;2022-07-29T02:20:31;21.50;58.10
39925;DHT22;25592;49.986;11.618;2022-07-29T02:23:21;21.60;58.30
39925;DHT22;25592;49.986;11.618;2022-07-29T02:26:08;21.60;58.70
39925;DHT22;25592;49.986;11.618;2022-07-29T02:28:55;21.70;58.90
39925;DHT22;25592;49.986;11.618;2022-07-29T02:31:41;21.70;58.40
39925;DHT22;25592;49.986;11.618;2022-07-29T02:34:29;21.70;58.70
39925;DHT22;25592;49.986;11.618;2022-07-29T02:37:16;21.70;59.10
39925;DHT22;25592;49.986;11.618;2022-07-29T02:40:04;21.70;59.30
39925;DHT22;25592;49.986;11.618;2022-07-29T02:42:50;21.70;59.00
39925;DHT22;25592;49.986;11.618;2022-07-29T02:45:36;21.70;58.80
39925;DHT22;25592;49.986;11.618;2022-07-29T02:48:41;21.60;58.30
39925;DHT22;25592;49.986;11.618;2022-07-29T02:51:40;21.60;58.90
39925;DHT22;25592;49.986;11.618;2022-07-29T02:54:46;21.50;58.50
39925;DHT22;25592;49.986;11.618;2022-07-29T02:57:39;21.40;57.90
39925;DHT22;25592;49.986;11.618;2022-07-29T03:00:40;21.50;59.10
39925;DHT22;25592;49.986;11.618;2022-07-29T03:03:30;21.50;58.40
39925;DHT22;25592;49.986;11.618;2022-07-29T03:06:17;21.50;59.20
39925;DHT22;25592;49.986;11.618;2022-07-29T03:09:15;21.50;59.70
39925;DHT22;25592;49.986;11.618;2022-07-29T03:12:01;21.50;59.70
39925;DHT22;25592;49.986;11.618;2022-07-29T03:14:47;21.40;59.40
39925;DHT22;25592;49.986;11.618;2022-07-29T03:17:33;21.40;59.00
39925;DHT22;25592;49.986;11.618;2022-07-29T03:20:19;21.50;59.50
39925;DHT22;25592;49.986;11.618;2022-07-29T03:23:05;21.50;60.40
39925;DHT22;25592;49.986;11.618;2022-07-29T03:25:50;21.40;59.80
39925;DHT22;25592;49.986;11.618;2022-07-29T03:28:35;21.40;60.10
39925;DHT22;25592;49.986;11.618;2022-07-29T03:31:23;21.40;59.90
39925;DHT22;25592;49.986;11.618;2022-07-29T03:34:09;21.40;60.70
39925;DHT22;25592;49.986;11.618;2022-07-29T03:36:54;21.30;59.80
39925;DHT22;25592;49.986;11.618;2022-07-29T03:39:41;21.30;59.30
39925;DHT22;25592;49.986;11.618;2022-07-29T03:42:31;21.30;59.40
39925;DHT22;25592;49.986;11.618;2022-07-29T03:45:19;21.40;60.00
39925;DHT22;25592;49.986;11.618;2022-07-29T03:48:08;21.30;59.70
39925;DHT22;25592;49.986;11.618;2022-07-29T03:50:54;21.20;60.00
39925;DHT22;25592;49.986;11.618;2022-07-29T03:53:40;21.30;60.70
39925;DHT22;25592;49.986;11.618;2022-07-29T03:56:27;21.40;60.90
39925;DHT22;25592;49.986;11.618;2022-07-29T03:59:14;21.30;60.40
39925;DHT22;25592;49.986;11.618;2022-07-29T04:02:01;21.30;60.70
39925;DHT22;25592;49.986;11.618;2022-07-29T04:04:48;21.30;60.60
39925;DHT22;25592;49.986;11.618;2022-07-29T04:07:33;21.20;60.10
39925;DHT22;25592;49.986;11.618;2022-07-29T04:10:19;21.30;60.70
39925;DHT22;25592;49.986;11.618;2022-07-29T04:13:14;21.30;60.60
39925;DHT22;25592;49.986;11.618;2022-07-29T04:16:00;21.30;61.10
39925;DHT22;25592;49.986;11.618;2022-07-29T04:18:45;21.40;61.30
39925;DHT22;25592;49.986;11.618;2022-07-29T04:21:31;21.40;61.30
39925;DHT22;25592;49.986;11.618;2022-07-29T04:24:16;21.40;61.20
39925;DHT22;25592;49.986;11.618;2022-07-29T04:27:02;21.40;61.10
39925;DHT22;25592;49.986;11.618;2022-07-29T04:29:48;21.40;61.80
39925;DHT22;25592;49.986;11.618;2022-07-29T04:32:41;21.50;60.50
39925;DHT22;25592;49.986;11.618;2022-07-29T04:35:27;21.70;60.20
39925;DHT22;25592;49.986;11.618;2022-07-29T04:38:13;21.80;60.00
39925;DHT22;25592;49.986;11.618;2022-07-29T04:41:01;21.90;59.10
39925;DHT22;25592;49.986;11.618;2022-07-29T04:43:47;22.10;58.50
39925;DHT22;25592;49.986;11.618;2022-07-29T04:46:33;22.30;58.70
39925;DHT22;25592;49.986;11.618;2022-07-29T04:49:18;22.40;58.50
39925;DHT22;25592;49.986;11.618;2022-07-29T04:52:04;22.30;58.80
39925;DHT22;25592;49.986;11.618;2022-07-29T04:54:49;22.30;58.70
39925;DHT22;25592;49.986;11.618;2022-07-29T04:57:34;22.50;58.70
39925;DHT22;25592;49.986;11.618;2022-07-29T05:00:20;22.50;60.10
39925;DHT22;25592;49.986;11.618;2022-07-29T05:03:12;22.40;60.90
39925;DHT22;25592;49.986;11.618;2022-07-29T05:05:57;22.20;59.70
39925;DHT22;25592;49.986;11.618;2022-07-29T05:08:42;22.20;60.60
39925;DHT22;25592;49.986;11.618;2022-07-29T05:11:28;22.20;61.70
39925;DHT22;25592;49.986;11.618;2022-07-29T05:14:14;22.20;61.60
39925;DHT22;25592;49.986;11.618;2022-07-29T05:17:00;22.00;59.50
39925;DHT22;25592;49.986;11.618;2022-07-29T05:19:45;22.00;60.10
39925;DHT22;25592;49.986;11.618;2022-07-29T05:22:31;22.00;60.90
39925;DHT22;25592;49.986;11.618;2022-07-29T05:25:16;21.80;61.50
39925;DHT22;25592;49.986;11.618;2022-07-29T05:28:02;21.80;61.00
39925;DHT22;25592;49.986;11.618;2022-07-29T05:30:47;21.80;60.90
39925;DHT22;25592;49.986;11.618;2022-07-29T05:33:33;21.90;60.60
39925;DHT22;25592;49.986;11.618;2022-07-29T05:36:21;21.80;60.30
39925;DHT22;25592;49.986;11.618;2022-07-29T05:39:07;21.60;61.00
39925;DHT22;25592;49.986;11.618;2022-07-29T05:41:52;21.50;60.80
39925;DHT22;25592;49.986;11.618;2022-07-29T05:44:38;21.70;60.30
39925;DHT22;25592;49.986;11.618;2022-07-29T05:47:24;21.70;60.00
39925;DHT22;25592;49.986;11.618;2022-07-29T05:50:09;21.80;59.70
39925;DHT22;25592;49.986;11.618;2022-07-29T05:52:55;22.00;59.30
39925;DHT22;25592;49.986;11.618;2022-07-29T05:55:40;22.20;59.00
39925;DHT22;25592;49.986;11.618;2022-07-29T05:58:25;22.30;61.00
39925;DHT22;25592;49.986;11.618;2022-07-29T06:01:11;22.30;60.80
39925;DHT22;25592;49.986;11.618;2022-07-29T06:03:59;22.40;61.10
39925;DHT22;25592;49.986;11.618;2022-07-29T06:06:45;22.50;61.30
39925;DHT22;25592;49.986;11.618;2022-07-29T06:09:30;22.50;61.70
39925;DHT22;25592;49.986;11.618;2022-07-29T06:12:15;22.50;61.70
39925;DHT22;25592;49.986;11.618;2022-07-29T06:15:01;22.50;58.80
39925;DHT22;25592;49.986;11.618;2022-07-29T06:17:46;22.40;60.30
39925;DHT22;25592;49.986;11.618;2022-07-29T06:20:46;22.50;58.60
39925;DHT22;25592;49.986;11.618;2022-07-29T06:23:31;22.50;57.70
39925;DHT22;25592;49.986;11.618;2022-07-29T06:26:17;22.50;57.50
39925;DHT22;25592;49.986;11.618;2022-07-29T06:29:15;22.50;57.20
39925;DHT22;25592;49.986;11.618;2022-07-29T06:32:00;22.50;57.00
39925;DHT22;25592;49.986;11.618;2022-07-29T06:34:47;22.60;56.50
39925;DHT22;25592;49.986;11.618;2022-07-29T06:37:32;22.70;56.50
39925;DHT22;25592;49.986;11.618;2022-07-29T06:40:20;22.80;56.10
39925;DHT22;25592;49.986;11.618;2022-07-29T06:43:24;22.90;55.90
39925;DHT22;25592;49.986;11.618;2022-07-29T06:46:12;22.90;56.00
39925;DHT22;25592;49.986;11.618;2022-07-29T06:48:58;22.90;55.60
39925;DHT22;25592;49.986;11.618;2022-07-29T06:51:43;23.00;55.30
39925;DHT22;25592;49.986;11.618;2022-07-29T06:54:29;23.00;54.80
39925;DHT22;25592;49.986;11.618;2022-07-29T06:57:14;22.90;54.70
39925;DHT22;25592;49.986;11.618;2022-07-29T07:00:00;22.90;54.90
39925;DHT22;25592;49.986;11.618;2022-07-29T07:02:45;22.80;55.40
39925;DHT22;25592;49.986;11.618;2022-07-29T07:05:31;22.90;55.10
39925;DHT22;25592;49.986;11.618;2022-07-29T07:08:17;23.00;55.50
39925;DHT22;25592;49.986;11.618;2022-07-29T07:11:02;23.00;55.60
39925;DHT22;25592;49.986;11.618;2022-07-29T07:13:49;22.90;55.20
39925;DHT22;25592;49.986;11.618;2022-07-29T07:16:34;23.10;55.80
39925;DHT22;25592;49.986;11.618;2022-07-29T07:19:20;22.90;56.10
39925;DHT22;25592;49.986;11.618;2022-07-29T07:22:05;23.00;55.60
39925;DHT22;25592;49.986;11.618;2022-07-29T07:24:50;23.20;55.90
39925;DHT22;25592;49.986;11.618;2022-07-29T07:27:36;23.40;56.30
39925;DHT22;25592;49.986;11.618;2022-07-29T07:30:22;23.60;55.90
39925;DHT22;25592;49.986;11.618;2022-07-29T07:33:07;23.70;55.70
39925;DHT22;25592;49.986;11.618;2022-07-29T07:35:53;23.60;55.20
39925;DHT22;25592;49.986;11.618;2022-07-29T07:38:38;23.50;55.40
39925;DHT22;25592;49.986;11.618;2022-07-29T07:41:24;23.40;56.00
39925;DHT22;25592;49.986;11.618;2022-07-29T07:44:09;23.50;56.10
39925;DHT22;25592;49.986;11.618;2022-07-29T07:47:00;23.50;56.50
39925;DHT22;25592;49.986;11.618;2022-07-29T07:49:53;23.70;56.00
39925;DHT22;25592;49.986;11.618;2022-07-29T07:52:53;23.70;55.80
39925;DHT22;25592;49.986;11.618;2022-07-29T07:55:40;23.90;56.30
39925;DHT22;25592;49.986;11.618;2022-07-29T07:58:46;24.10;55.60
39925;DHT22;25592;49.986;11.618;2022-07-29T08:01:32;24.10;55.70
39925;DHT22;25592;49.986;11.618;2022-07-29T08:04:37;24.20;55.60
39925;DHT22;25592;49.986;11.618;2022-07-29T08:07:25;24.30;55.10
39925;DHT22;25592;49.986;11.618;2022-07-29T08:10:10;24.30;55.00
39925;DHT22;25592;49.986;11.618;2022-07-29T08:12:55;24.40;55.80
39925;DHT22;25592;49.986;11.618;2022-07-29T08:15:41;24.60;55.60
39925;DHT22;25592;49.986;11.618;2022-07-29T08:18:29;24.80;55.70
39925;DHT22;25592;49.986;11.618;2022-07-29T08:21:16;25.00;55.20
39925;DHT22;25592;49.986;11.618;2022-07-29T08:24:02;25.10;54.80
39925;DHT22;25592;49.986;11.618;2022-07-29T08:27:06;25.40;54.60
39925;DHT22;25592;49.986;11.618;2022-07-29T08:30:12;25.50;54.60
39925;DHT22;25592;49.986;11.618;2022-07-29T08:32:58;25.40;54.30
39925;DHT22;25592;49.986;11.618;2022-07-29T08:35:45;25.60;54.50
39925;DHT22;25592;49.986;11.618;2022-07-29T08:38:30;25.80;54.40
39925;DHT22;25592;49.986;11.618;2022-07-29T08:41:15;25.80;54.70
39925;DHT22;25592;49.986;11.618;2022-07-29T08:44:03;26.00;54.40
39925;DHT22;25592;49.986;11.618;2022-07-29T08:46:50;26.20;54.20
39925;DHT22;25592;49.986;11.618;2022-07-29T08:49:35;26.40;54.60
39925;DHT22;25592;49.986;11.618;2022-07-29T08:52:25;26.50;54.90
39925;DHT22;25592;49.986;11.618;2022-07-29T08:55:10;26.50;55.10
39925;DHT22;25592;49.986;11.618;2022-07-29T08:57:56;26.80;55.30
39925;DHT22;25592;49.986;11.618;2022-07-29T09:00:48;26.80;55.80
39925;DHT22;25592;49.986;11.618;2022-07-29T09:03:37;27.10;54.90
39925;DHT22;25592;49.986;11.618;2022-07-29T09:06:24;27.20;54.80
39925;DHT22;25592;49.986;11.618;2022-07-29T09:09:13;27.10;54.20
39925;DHT22;25592;49.986;11.618;2022-07-29T09:11:59;27.10;54.60
39925;DHT22;25592;49.986;11.618;2022-07-29T09:14:45;27.20;54.90
39925;DHT22;25592;49.986;11.618;2022-07-29T09:17:48;27.40;54.50
39925;DHT22;25592;49.986;11.618;2022-07-29T09:20:33;27.50;54.30
39925;DHT22;25592;49.986;11.618;2022-07-29T09:23:37;27.50;54.00
39925;DHT22;25592;49.986;11.618;2022-07-29T09:26:28;27.40;54.20
39925;DHT22;25592;49.986;11.618;2022-07-29T09:29:19;27.30;54.60
39925;DHT22;25592;49.986;11.618;2022-07-29T09:32:08;27.30;54.60
39925;DHT22;25592;49.986;11.618;2022-07-29T09:35:13;27.30;54.80
39925;DHT22;25592;49.986;11.618;2022-07-29T09:38:10;27.60;55.10
39925;DHT22;25592;49.986;11.618;2022-07-29T09:41:00;27.80;53.70
39925;DHT22;25592;49.986;11.618;2022-07-29T09:43:57;27.40;54.10
39925;DHT22;25592;49.986;11.618;2022-07-29T09:47:12;27.60;54.50
39925;DHT22;25592;49.986;11.618;2022-07-29T09:49:59;27.70;55.70
39925;DHT22;25592;49.986;11.618;2022-07-29T09:52:50;27.70;54.70
39925;DHT22;25592;49.986;11.618;2022-07-29T09:55:51;27.80;55.50
39925;DHT22;25592;49.986;11.618;2022-07-29T09:58:37;27.70;54.30
39925;DHT22;25592;49.986;11.618;2022-07-29T10:01:28;27.60;54.40
39925;DHT22;25592;49.986;11.618;2022-07-29T10:04:14;27.80;53.90
39925;DHT22;25592;49.986;11.618;2022-07-29T10:07:01;27.80;54.20
39925;DHT22;25592;49.986;11.618;2022-07-29T10:09:52;28.00;53.60
39925;DHT22;25592;49.986;11.618;2022-07-29T10:12:49;28.00;54.10
39925;DHT22;25592;49.986;11.618;2022-07-29T10:15:37;28.10;54.30
39925;DHT22;25592;49.986;11.618;2022-07-29T10:18:25;28.00;53.30
39925;DHT22;25592;49.986;11.618;2022-07-29T10:21:11;28.00;53.40
39925;DHT22;25592;49.986;11.618;2022-07-29T10:24:17;27.80;53.10
39925;DHT22;25592;49.986;11.618;2022-07-29T10:27:05;27.80;53.80
39925;DHT22;25592;49.986;11.618;2022-07-29T10:29:50;27.80;53.80
39925;DHT22;25592;49.986;11.618;2022-07-29T10:45:17;27.70;54.00
39925;DHT22;25592;49.986;11.618;2022-07-29T10:48:04;28.10;53.70
39925;DHT22;25592;49.986;11.618;2022-07-29T10:51:10;28.60;52.50
39925;DHT22;25592;49.986;11.618;2022-07-29T10:57:30;29.00;52.50
39925;DHT22;25592;49.986;11.618;2022-07-29T11:00:36;29.50;51.50
39925;DHT22;25592;49.986;11.618;2022-07-29T11:12:58;29.70;50.30
39925;DHT22;25592;49.986;11.618;2022-07-29T11:15:56;29.60;50.70
39925;DHT22;25592;49.986;11.618;2022-07-29T11:21:57;30.20;50.30
39925;DHT22;25592;49.986;11.618;2022-07-29T11:24:43;30.60;49.80
39925;DHT22;25592;49.986;11.618;2022-07-29T11:27:34;30.80;49.10
39925;DHT22;25592;49.986;11.618;2022-07-29T11:30:51;31.10;49.50
39925;DHT22;25592;49.986;11.618;2022-07-29T11:33:37;31.00;48.30
39925;DHT22;25592;49.986;11.618;2022-07-29T11:42:47;31.60;48.30
39925;DHT22;25592;49.986;11.618;2022-07-29T11:45:46;31.80;47.60
39925;DHT22;25592;49.986;11.618;2022-07-29T11:48:32;32.20;47.20
39925;DHT22;25592;49.986;11.618;2022-07-29T11:51:20;31.80;47.10
39925;DHT22;25592;49.986;11.618;2022-07-29T11:54:25;31.60;47.40
39925;DHT22;25592;49.986;11.618;2022-07-29T11:57:12;31.60;48.00
39925;DHT22;25592;49.986;11.618;2022-07-29T12:00:00;31.70;47.60
39925;DHT22;25592;49.986;11.618;2022-07-29T12:02:58;32.10;47.40
39925;DHT22;25592;49.986;11.618;2022-07-29T12:05:45;32.50;47.10
39925;DHT22;25592;49.986;11.618;2022-07-29T12:08:40;32.90;46.70
39925;DHT22;25592;49.986;11.618;2022-07-29T12:11:28;32.90;46.30
39925;DHT22;25592;49.986;11.618;2022-07-29T12:14:30;32.60;46.80
39925;DHT22;25592;49.986;11.618;2022-07-29T12:20:23;32.00;47.40
39925;DHT22;25592;49.986;11.618;2022-07-29T12:23:10;31.80;47.20
39925;DHT22;25592;49.986;11.618;2022-07-29T12:25:58;31.80;47.70
39925;DHT22;25592;49.986;11.618;2022-07-29T12:28:43;31.50;48.60
39925;DHT22;25592;49.986;11.618;2022-07-29T12:31:31;31.10;49.90
39925;DHT22;25592;49.986;11.618;2022-07-29T12:34:29;30.80;51.40
39925;DHT22;25592;49.986;11.618;2022-07-29T12:37:15;30.00;52.80
39925;DHT22;25592;49.986;11.618;2022-07-29T12:40:02;29.60;54.20
39925;DHT22;25592;49.986;11.618;2022-07-29T12:43:08;29.20;55.20
39925;DHT22;25592;49.986;11.618;2022-07-29T12:45:57;29.00;55.70
39925;DHT22;25592;49.986;11.618;2022-07-29T12:48:43;28.90;57.60
39925;DHT22;25592;49.986;11.618;2022-07-29T12:54:18;28.60;62.40
39925;DHT22;25592;49.986;11.618;2022-07-29T12:57:03;28.50;64.60
39925;DHT22;25592;49.986;11.618;2022-07-29T13:02:58;27.90;67.40
39925;DHT22;25592;49.986;11.618;2022-07-29T13:05:45;27.40;68.50
39925;DHT22;25592;49.986;11.618;2022-07-29T13:08:33;27.00;70.90
39925;DHT22;25592;49.986;11.618;2022-07-29T13:11:42;26.60;71.50
39925;DHT22;25592;49.986;11.618;2022-07-29T13:14:38;26.60;71.30
39925;DHT22;25592;49.986;11.618;2022-07-29T13:17:24;26.50;72.40
39925;DHT22;25592;49.986;11.618;2022-07-29T13:20:16;26.20;74.60
39925;DHT22;25592;49.986;11.618;2022-07-29T13:23:02;25.70;76.30
39925;DHT22;25592;49.986;11.618;2022-07-29T13:25:47;25.80;76.50
39925;DHT22;25592;49.986;11.618;2022-07-29T13:28:33;26.00;73.90
39925;DHT22;25592;49.986;11.618;2022-07-29T13:31:19;26.20;75.40
39925;DHT22;25592;49.986;11.618;2022-07-29T13:34:04;26.70;75.70
39925;DHT22;25592;49.986;11.618;2022-07-29T13:36:50;26.70;74.40
39925;DHT22;25592;49.986;11.618;2022-07-29T13:39:36;26.60;73.90
39925;DHT22;25592;49.986;11.618;2022-07-29T13:42:24;26.60;74.40
39925;DHT22;25592;49.986;11.618;2022-07-29T13:45:14;26.60;74.60
39925;DHT22;25592;49.986;11.618;2022-07-29T13:48:13;26.80;76.40
39925;DHT22;25592;49.986;11.618;2022-07-29T13:50:58;26.90;74.80
39925;DHT22;25592;49.986;11.618;2022-07-29T13:53:44;27.00;74.70
39925;DHT22;25592;49.986;11.618;2022-07-29T13:56:30;26.90;74.80
39925;DHT22;25592;49.986;11.618;2022-07-29T13:59:15;27.20;75.80
39925;DHT22;25592;49.986;11.618;2022-07-29T14:02:01;27.70;74.90
39925;DHT22;25592;49.986;11.618;2022-07-29T14:04:46;28.20;73.80
39925;DHT22;25592;49.986;11.618;2022-07-29T14:07:32;28.60;72.50
39925;DHT22;25592;49.986;11.618;2022-07-29T14:10:17;28.70;72.10
39925;DHT22;25592;49.986;11.618;2022-07-29T14:13:04;28.30;71.50
39925;DHT22;25592;49.986;11.618;2022-07-29T14:16:08;28.10;71.40
39925;DHT22;25592;49.986;11.618;2022-07-29T14:18:54;27.90;71.50
39925;DHT22;25592;49.986;11.618;2022-07-29T14:21:39;28.00;71.90
39925;DHT22;25592;49.986;11.618;2022-07-29T14:24:25;28.00;71.00
39925;DHT22;25592;49.986;11.618;2022-07-29T14:27:11;28.00;70.20
39925;DHT22;25592;49.986;11.618;2022-07-29T14:29:57;27.90;70.60
39925;DHT22;25592;49.986;11.618;2022-07-29T14:32:44;28.20;70.20
39925;DHT22;25592;49.986;11.618;2022-07-29T14:35:29;28.30;70.10
39925;DHT22;25592;49.986;11.618;2022-07-29T14:38:15;28.30;69.40
39925;DHT22;25592;49.986;11.618;2022-07-29T14:41:00;28.50;69.40
39925;DHT22;25592;49.986;11.618;2022-07-29T14:43:47;28.80;69.40
39925;DHT22;25592;49.986;11.618;2022-07-29T14:46:32;28.80;67.70
39925;DHT22;25592;49.986;11.618;2022-07-29T14:49:18;28.70;67.10
39925;DHT22;25592;49.986;11.618;2022-07-29T14:52:04;28.50;66.20
39925;DHT22;25592;49.986;11.618;2022-07-29T14:54:49;28.30;66.20
39925;DHT22;25592;49.986;11.618;2022-07-29T14:57:35;28.10;68.10
39925;DHT22;25592;49.986;11.618;2022-07-29T15:00:20;27.90;68.00
39925;DHT22;25592;49.986;11.618;2022-07-29T15:03:06;27.80;68.50
39925;DHT22;25592;49.986;11.618;2022-07-29T15:05:55;27.70;68.70
39925;DHT22;25592;49.986;11.618;2022-07-29T15:08:41;27.60;68.50
39925;DHT22;25592;49.986;11.618;2022-07-29T15:11:26;27.50;69.30
39925;DHT22;25592;49.986;11.618;2022-07-29T15:14:12;27.30;69.60
39925;DHT22;25592;49.986;11.618;2022-07-29T15:16:58;27.40;70.20
39925;DHT22;25592;49.986;11.618;2022-07-29T15:19:44;27.20;69.00
39925;DHT22;25592;49.986;11.618;2022-07-29T15:22:30;27.20;68.70
39925;DHT22;25592;49.986;11.618;2022-07-29T15:25:15;27.00;67.70
39925;DHT22;25592;49.986;11.618;2022-07-29T15:28:01;26.90;67.10
39925;DHT22;25592;49.986;11.618;2022-07-29T15:30:48;26.90;68.10
39925;DHT22;25592;49.986;11.618;2022-07-29T15:33:33;26.90;68.00
39925;DHT22;25592;49.986;11.618;2022-07-29T15:36:18;26.90;67.70
39925;DHT22;25592;49.986;11.618;2022-07-29T15:39:24;26.90;68.40
39925;DHT22;25592;49.986;11.618;2022-07-29T15:42:09;26.80;68.80
39925;DHT22;25592;49.986;11.618;2022-07-29T15:44:54;26.60;69.40
39925;DHT22;25592;49.986;11.618;2022-07-29T15:47:40;26.20;69.40
39925;DHT22;25592;49.986;11.618;2022-07-29T15:50:26;26.00;69.90
39925;DHT22;25592;49.986;11.618;2022-07-29T15:53:11;26.00;70.40
39925;DHT22;25592;49.986;11.618;2022-07-29T15:55:57;25.90;70.90
39925;DHT22;25592;49.986;11.618;2022-07-29T15:58:42;25.80;71.10
39925;DHT22;25592;49.986;11.618;2022-07-29T16:01:28;25.80;71.80
39925;DHT22;25592;49.986;11.618;2022-07-29T16:04:14;25.90;72.20
39925;DHT22;25592;49.986;11.618;2022-07-29T16:07:00;26.00;72.30
39925;DHT22;25592;49.986;11.618;2022-07-29T16:09:45;26.10;73.20
39925;DHT22;25592;49.986;11.618;2022-07-29T16:12:37;26.10;73.10
39925;DHT22;25592;49.986;11.618;2022-07-29T16:15:22;26.20;72.10
39925;DHT22;25592;49.986;11.618;2022-07-29T16:18:08;26.10;70.50
39925;DHT22;25592;49.986;11.618;2022-07-29T16:20:54;26.00;72.50
39925;DHT22;25592;49.986;11.618;2022-07-29T16:23:39;25.70;73.70
39925;DHT22;25592;49.986;11.618;2022-07-29T16:26:26;25.60;73.90
39925;DHT22;25592;49.986;11.618;2022-07-29T16:29:11;25.40;75.90
39925;DHT22;25592;49.986;11.618;2022-07-29T16:31:57;25.00;77.30
39925;DHT22;25592;49.986;11.618;2022-07-29T16:34:42;24.90;78.20
39925;DHT22;25592;49.986;11.618;2022-07-29T16:37:28;24.70;78.10
39925;DHT22;25592;49.986;11.618;2022-07-29T16:40:17;24.60;79.20
39925;DHT22;25592;49.986;11.618;2022-07-29T16:43:03;24.60;79.50
39925;DHT22;25592;49.986;11.618;2022-07-29T16:45:50;24.70;79.10
39925;DHT22;25592;49.986;11.618;2022-07-29T16:48:36;24.60;79.40
39925;DHT22;25592;49.986;11.618;2022-07-29T16:51:23;24.60;79.70
39925;DHT22;25592;49.986;11.618;2022-07-29T16:54:08;24.50;79.10
39925;DHT22;25592;49.986;11.618;2022-07-29T16:56:54;24.30;79.70
39925;DHT22;25592;49.986;11.618;2022-07-29T16:59:40;24.50;81.00
39925;DHT22;25592;49.986;11.618;2022-07-29T17:02:27;24.50;80.40
39925;DHT22;25592;49.986;11.618;2022-07-29T17:05:13;24.60;81.50
39925;DHT22;25592;49.986;11.618;2022-07-29T17:07:59;24.60;81.60
39925;DHT22;25592;49.986;11.618;2022-07-29T17:10:45;24.70;82.30
39925;DHT22;25592;49.986;11.618;2022-07-29T17:13:30;24.80;81.90
39925;DHT22;25592;49.986;11.618;2022-07-29T17:16:15;24.80;81.90
39925;DHT22;25592;49.986;11.618;2022-07-29T17:19:02;24.80;82.40
39925;DHT22;25592;49.986;11.618;2022-07-29T17:21:47;24.80;82.00
39925;DHT22;25592;49.986;11.618;2022-07-29T17:24:34;24.70;84.40
39925;DHT22;25592;49.986;11.618;2022-07-29T17:27:19;24.70;87.40
39925;DHT22;25592;49.986;11.618;2022-07-29T17:30:05;24.60;88.80
39925;DHT22;25592;49.986;11.618;2022-07-29T17:32:51;24.70;88.20
39925;DHT22;25592;49.986;11.618;2022-07-29T17:35:36;24.80;85.00
39925;DHT22;25592;49.986;11.618;2022-07-29T17:38:40;24.80;83.90
39925;DHT22;25592;49.986;11.618;2022-07-29T17:41:26;24.80;85.10
39925;DHT22;25592;49.986;11.618;2022-07-29T17:44:12;24.80;84.00
39925;DHT22;25592;49.986;11.618;2022-07-29T17:46:57;24.80;84.30
39925;DHT22;25592;49.986;11.618;2022-07-29T17:49:44;24.80;83.80
39925;DHT22;25592;49.986;11.618;2022-07-29T17:52:29;24.90;85.20
39925;DHT22;25592;49.986;11.618;2022-07-29T17:55:15;24.90;86.40
39925;DHT22;25592;49.986;11.618;2022-07-29T17:58:00;24.80;86.60
39925;DHT22;25592;49.986;11.618;2022-07-29T18:00:46;24.80;84.70
39925;DHT22;25592;49.986;11.618;2022-07-29T18:03:32;24.80;85.40
39925;DHT22;25592;49.986;11.618;2022-07-29T18:06:18;24.80;88.50
39925;DHT22;25592;49.986;11.618;2022-07-29T18:09:04;24.70;88.40
39925;DHT22;25592;49.986;11.618;2022-07-29T18:11:50;24.70;88.70
39925;DHT22;25592;49.986;11.618;2022-07-29T18:14:36;24.70;89.10
39925;DHT22;25592;49.986;11.618;2022-07-29T18:17:22;24.70;88.70
39925;DHT22;25592;49.986;11.618;2022-07-29T18:20:29;24.70;89.20
39925;DHT22;25592;49.986;11.618;2022-07-29T18:23:15;24.60;87.50